QAK541 MMAA-MMMX
Flight info
| Callsign | QAK541 |
|---|---|
| Flight time | 0h 42m |
| Altitude | 28000 |
| Route | ALNUS1B ALNUS UT117 ESPOS ESPOS3A |
| Aircraft | A321/M-SDE3FGHIRWY/LB1 |
Departure
| Time | 2026-05-06 01:51 |
|---|---|
| Airport | General Juan N. Álvarez International Airport (MMAA) |
Arrival
| Time | 2026-05-06 02:34 |
|---|---|
| Airport | Mexico City Benito Juárez International Airport (MMMX) |
| Time | Latitude | Longitude | Altitude | Speed | Heading |
|---|---|---|---|---|---|
| 2026-05-06 01:33 | 16.76082 | -99.75369 | 17 ft | 0 kts | 18° |
| 2026-05-06 01:39 | 16.76074 | -99.75372 | 18 ft | 3 kts | 18° |
| 2026-05-06 01:40 | 16.76055 | -99.75378 | 17 ft | 3 kts | 18° |
| 2026-05-06 01:40 | 16.76035 | -99.75385 | 19 ft | 3 kts | 18° |
| 2026-05-06 01:40 | 16.76019 | -99.75390 | 19 ft | 3 kts | 24° |
| 2026-05-06 01:40 | 16.76003 | -99.75400 | 20 ft | 3 kts | 53° |
| 2026-05-06 01:41 | 16.75996 | -99.75417 | 20 ft | 3 kts | 90° |
| 2026-05-06 01:41 | 16.75998 | -99.75437 | 20 ft | 3 kts | 107° |
| 2026-05-06 01:41 | 16.76002 | -99.75448 | 20 ft | 1 kts | 108° |
| 2026-05-06 01:41 | 16.76002 | -99.75451 | 20 ft | 0 kts | 108° |
| 2026-05-06 01:44 | 16.76002 | -99.75450 | 20 ft | 0 kts | 108° |
| 2026-05-06 01:44 | 16.76000 | -99.75442 | 20 ft | 2 kts | 108° |
| 2026-05-06 01:44 | 16.75991 | -99.75414 | 21 ft | 6 kts | 108° |
| 2026-05-06 01:45 | 16.75972 | -99.75371 | 19 ft | 7 kts | 131° |
| 2026-05-06 01:45 | 16.75918 | -99.75347 | 18 ft | 8 kts | 163° |
| 2026-05-06 01:45 | 16.75891 | -99.75316 | 18 ft | 6 kts | 112° |
| 2026-05-06 01:45 | 16.75874 | -99.75267 | 18 ft | 8 kts | 109° |
| 2026-05-06 01:46 | 16.75853 | -99.75205 | 19 ft | 10 kts | 109° |
| 2026-05-06 01:46 | 16.75832 | -99.75131 | 18 ft | 11 kts | 107° |
| 2026-05-06 01:46 | 16.75806 | -99.75047 | 18 ft | 13 kts | 108° |
| 2026-05-06 01:46 | 16.75774 | -99.74949 | 17 ft | 14 kts | 109° |
| 2026-05-06 01:47 | 16.75744 | -99.74855 | 17 ft | 13 kts | 109° |
| 2026-05-06 01:47 | 16.75716 | -99.74767 | 17 ft | 13 kts | 108° |
| 2026-05-06 01:47 | 16.75688 | -99.74679 | 17 ft | 13 kts | 108° |
| 2026-05-06 01:47 | 16.75656 | -99.74577 | 19 ft | 16 kts | 108° |
| 2026-05-06 01:48 | 16.75620 | -99.74457 | 18 ft | 19 kts | 108° |
| 2026-05-06 01:48 | 16.75577 | -99.74319 | 17 ft | 21 kts | 108° |
| 2026-05-06 01:48 | 16.75526 | -99.74161 | 19 ft | 25 kts | 108° |
| 2026-05-06 01:48 | 16.75467 | -99.73974 | 18 ft | 27 kts | 108° |
| 2026-05-06 01:49 | 16.75404 | -99.73778 | 17 ft | 29 kts | 108° |
| 2026-05-06 01:49 | 16.75340 | -99.73570 | 20 ft | 31 kts | 108° |
| 2026-05-06 01:49 | 16.75288 | -99.73399 | 17 ft | 15 kts | 109° |
| 2026-05-06 01:49 | 16.75216 | -99.73333 | 19 ft | 14 kts | 184° |
| 2026-05-06 01:50 | 16.75124 | -99.73366 | 19 ft | 12 kts | 219° |
| 2026-05-06 01:50 | 16.75108 | -99.73448 | 18 ft | 16 kts | 285° |
| 2026-05-06 01:50 | 16.75218 | -99.73806 | 17 ft | 90 kts | 288° |
| 2026-05-06 01:50 | 16.75481 | -99.74648 | 19 ft | 151 kts | 287° |
| 2026-05-06 01:51 | 16.75844 | -99.75774 | 476 ft | 166 kts | 288° |
| 2026-05-06 01:51 | 16.76254 | -99.76902 | 1201 ft | 166 kts | 290° |
| 2026-05-06 01:51 | 16.76640 | -99.78035 | 1901 ft | 168 kts | 286° |
| 2026-05-06 01:51 | 16.76996 | -99.79235 | 2218 ft | 185 kts | 285° |
| 2026-05-06 01:52 | 16.77397 | -99.80605 | 2471 ft | 203 kts | 285° |
| 2026-05-06 01:52 | 16.77818 | -99.82008 | 2892 ft | 206 kts | 287° |
| 2026-05-06 01:52 | 16.78257 | -99.83449 | 3316 ft | 209 kts | 287° |
| 2026-05-06 01:52 | 16.78704 | -99.84904 | 3753 ft | 211 kts | 288° |
| 2026-05-06 01:53 | 16.79200 | -99.86354 | 4172 ft | 214 kts | 295° |
| 2026-05-06 01:53 | 16.80108 | -99.87587 | 4589 ft | 218 kts | 317° |
| 2026-05-06 01:53 | 16.81429 | -99.88388 | 4917 ft | 226 kts | 339° |
| 2026-05-06 01:53 | 16.82974 | -99.88820 | 5210 ft | 232 kts | 344° |
| 2026-05-06 01:54 | 16.84544 | -99.89249 | 5538 ft | 235 kts | 344° |
| 2026-05-06 01:54 | 16.86184 | -99.89702 | 5705 ft | 252 kts | 344° |
| 2026-05-06 01:54 | 16.87902 | -99.90179 | 6009 ft | 259 kts | 344° |
| 2026-05-06 01:54 | 16.89648 | -99.90664 | 6011 ft | 259 kts | 344° |
| 2026-05-06 01:55 | 16.91391 | -99.91148 | 6013 ft | 259 kts | 344° |
| 2026-05-06 01:55 | 16.93135 | -99.91632 | 6013 ft | 259 kts | 345° |
| 2026-05-06 01:55 | 16.94921 | -99.91891 | 6015 ft | 261 kts | 0° |
| 2026-05-06 01:55 | 16.96708 | -99.91589 | 6290 ft | 266 kts | 18° |
| 2026-05-06 01:56 | 16.98375 | -99.90747 | 6889 ft | 267 kts | 31° |
| 2026-05-06 01:56 | 16.99965 | -99.89740 | 7553 ft | 267 kts | 31° |
| 2026-05-06 01:56 | 17.01564 | -99.88737 | 8198 ft | 268 kts | 31° |
| 2026-05-06 01:56 | 17.03170 | -99.87731 | 8827 ft | 270 kts | 32° |
| 2026-05-06 01:57 | 17.04784 | -99.86717 | 9458 ft | 271 kts | 32° |
| 2026-05-06 01:57 | 17.06403 | -99.85699 | 10046 ft | 273 kts | 32° |
| 2026-05-06 01:57 | 17.08040 | -99.84672 | 10604 ft | 275 kts | 32° |
| 2026-05-06 01:57 | 17.09680 | -99.83640 | 11157 ft | 277 kts | 32° |
| 2026-05-06 01:58 | 17.11380 | -99.82567 | 11361 ft | 295 kts | 32° |
| 2026-05-06 01:58 | 17.13197 | -99.81420 | 11484 ft | 315 kts | 32° |
| 2026-05-06 01:58 | 17.15125 | -99.80204 | 11613 ft | 333 kts | 32° |
| 2026-05-06 01:58 | 17.17160 | -99.78918 | 11740 ft | 350 kts | 32° |
| 2026-05-06 01:59 | 17.19326 | -99.77635 | 11891 ft | 364 kts | 25° |
| 2026-05-06 01:59 | 17.21740 | -99.76765 | 12247 ft | 371 kts | 14° |
| 2026-05-06 01:59 | 17.24318 | -99.76432 | 12733 ft | 376 kts | 2° |
| 2026-05-06 01:59 | 17.26949 | -99.76479 | 13230 ft | 379 kts | 0° |
| 2026-05-06 02:00 | 17.29593 | -99.76540 | 13735 ft | 382 kts | 0° |
| 2026-05-06 02:00 | 17.32258 | -99.76602 | 14155 ft | 385 kts | 0° |
| 2026-05-06 02:00 | 17.34918 | -99.76660 | 14566 ft | 388 kts | 1° |
| 2026-05-06 02:00 | 17.37626 | -99.76715 | 14977 ft | 391 kts | 1° |
| 2026-05-06 02:01 | 17.40358 | -99.76770 | 15376 ft | 394 kts | 1° |
| 2026-05-06 02:01 | 17.43106 | -99.76827 | 15771 ft | 397 kts | 1° |
| 2026-05-06 02:01 | 17.45877 | -99.76885 | 16169 ft | 400 kts | 1° |
| 2026-05-06 02:01 | 17.48675 | -99.76946 | 16583 ft | 403 kts | 1° |
| 2026-05-06 02:02 | 17.51495 | -99.77008 | 16963 ft | 407 kts | 1° |
| 2026-05-06 02:02 | 17.54293 | -99.77067 | 17335 ft | 409 kts | 1° |
| 2026-05-06 02:02 | 17.57193 | -99.77127 | 17688 ft | 413 kts | 1° |
| 2026-05-06 02:02 | 17.60061 | -99.77188 | 18112 ft | 412 kts | 1° |
| 2026-05-06 02:03 | 17.62886 | -99.77251 | 18547 ft | 411 kts | 0° |
| 2026-05-06 02:03 | 17.65746 | -99.77317 | 18982 ft | 410 kts | 0° |
| 2026-05-06 02:03 | 17.68598 | -99.77384 | 19418 ft | 408 kts | 0° |
| 2026-05-06 02:03 | 17.71440 | -99.77445 | 19861 ft | 408 kts | 0° |
| 2026-05-06 02:04 | 17.74282 | -99.77492 | 20316 ft | 408 kts | 0° |
| 2026-05-06 02:04 | 17.77119 | -99.77560 | 20791 ft | 407 kts | 360° |
| 2026-05-06 02:04 | 17.79945 | -99.77664 | 21247 ft | 406 kts | 359° |
| 2026-05-06 02:04 | 17.82764 | -99.77800 | 21740 ft | 405 kts | 358° |
| 2026-05-06 02:05 | 17.85573 | -99.77956 | 22226 ft | 404 kts | 358° |
| 2026-05-06 02:05 | 17.88370 | -99.78117 | 22721 ft | 402 kts | 358° |
| 2026-05-06 02:05 | 17.91157 | -99.78277 | 23226 ft | 399 kts | 358° |
| 2026-05-06 02:05 | 17.93925 | -99.78432 | 23670 ft | 397 kts | 358° |
| 2026-05-06 02:06 | 17.96680 | -99.78582 | 24100 ft | 395 kts | 358° |
| 2026-05-06 02:06 | 17.99380 | -99.78726 | 24531 ft | 392 kts | 358° |
| 2026-05-06 02:06 | 18.02136 | -99.78873 | 24982 ft | 390 kts | 358° |
| 2026-05-06 02:06 | 18.04800 | -99.79016 | 25428 ft | 387 kts | 358° |
| 2026-05-06 02:07 | 18.07482 | -99.79159 | 25878 ft | 385 kts | 358° |
| 2026-05-06 02:07 | 18.10144 | -99.79301 | 26361 ft | 382 kts | 358° |
| 2026-05-06 02:07 | 18.12784 | -99.79442 | 26837 ft | 378 kts | 358° |
| 2026-05-06 02:07 | 18.15408 | -99.79582 | 27336 ft | 374 kts | 357° |
| 2026-05-06 02:08 | 18.17985 | -99.79719 | 27819 ft | 369 kts | 357° |
| 2026-05-06 02:08 | 18.20543 | -99.79853 | 28207 ft | 369 kts | 357° |
| 2026-05-06 02:08 | 18.23133 | -99.79991 | 28338 ft | 376 kts | 357° |
| 2026-05-06 02:08 | 18.25772 | -99.80132 | 28468 ft | 383 kts | 357° |
| 2026-05-06 02:09 | 18.28451 | -99.80276 | 28627 ft | 388 kts | 357° |
| 2026-05-06 02:09 | 18.31177 | -99.80424 | 28721 ft | 396 kts | 357° |
| 2026-05-06 02:09 | 18.36823 | -99.80729 | 28738 ft | 416 kts | 357° |
| 2026-05-06 02:10 | 18.41719 | -99.80996 | 28746 ft | 432 kts | 357° |
| 2026-05-06 02:10 | 18.47853 | -99.81323 | 28749 ft | 450 kts | 357° |
| 2026-05-06 02:11 | 18.54228 | -99.81665 | 28760 ft | 467 kts | 357° |
| 2026-05-06 02:11 | 18.57444 | -99.81840 | 28739 ft | 449 kts | 357° |
| 2026-05-06 02:11 | 18.60487 | -99.82007 | 28766 ft | 433 kts | 357° |
| 2026-05-06 02:12 | 18.66396 | -99.81813 | 28780 ft | 419 kts | 13° |
| 2026-05-06 02:12 | 18.69160 | -99.80921 | 28783 ft | 412 kts | 24° |
| 2026-05-06 02:12 | 18.71686 | -99.79530 | 28796 ft | 413 kts | 35° |
| 2026-05-06 02:13 | 18.73959 | -99.77642 | 28797 ft | 420 kts | 46° |
| 2026-05-06 02:13 | 18.75880 | -99.75310 | 28802 ft | 421 kts | 57° |
| 2026-05-06 02:13 | 18.77350 | -99.72642 | 28799 ft | 420 kts | 68° |
| 2026-05-06 02:13 | 18.78544 | -99.69819 | 28522 ft | 423 kts | 68° |
| 2026-05-06 02:14 | 18.79735 | -99.67002 | 27800 ft | 412 kts | 68° |
| 2026-05-06 02:14 | 18.80897 | -99.64270 | 27270 ft | 408 kts | 68° |
| 2026-05-06 02:14 | 18.82056 | -99.61543 | 26666 ft | 405 kts | 68° |
| 2026-05-06 02:14 | 18.83205 | -99.58842 | 26075 ft | 401 kts | 68° |
| 2026-05-06 02:15 | 18.84325 | -99.56211 | 25509 ft | 396 kts | 68° |
| 2026-05-06 02:15 | 18.85444 | -99.53575 | 24952 ft | 392 kts | 68° |
| 2026-05-06 02:15 | 18.86551 | -99.50956 | 24312 ft | 387 kts | 68° |
| 2026-05-06 02:15 | 18.87642 | -99.48376 | 23771 ft | 383 kts | 68° |
| 2026-05-06 02:16 | 18.88713 | -99.45814 | 23227 ft | 379 kts | 71° |
| 2026-05-06 02:16 | 18.89341 | -99.43159 | 22598 ft | 370 kts | 88° |
| 2026-05-06 02:16 | 18.89122 | -99.40492 | 22002 ft | 363 kts | 103° |
| 2026-05-06 02:16 | 18.88559 | -99.37906 | 21429 ft | 360 kts | 104° |
| 2026-05-06 02:17 | 18.87969 | -99.35351 | 20866 ft | 356 kts | 104° |
| 2026-05-06 02:17 | 18.87382 | -99.32817 | 20317 ft | 353 kts | 104° |
| 2026-05-06 02:17 | 18.86801 | -99.30316 | 19786 ft | 349 kts | 104° |
| 2026-05-06 02:17 | 18.86225 | -99.27837 | 19272 ft | 346 kts | 104° |
| 2026-05-06 02:18 | 18.85656 | -99.25382 | 18770 ft | 342 kts | 104° |
| 2026-05-06 02:18 | 18.85092 | -99.22951 | 18278 ft | 339 kts | 104° |
| 2026-05-06 02:18 | 18.84535 | -99.20550 | 17770 ft | 336 kts | 104° |
| 2026-05-06 02:18 | 18.83990 | -99.18194 | 17230 ft | 333 kts | 103° |
| 2026-05-06 02:19 | 18.83442 | -99.15825 | 16703 ft | 331 kts | 103° |
| 2026-05-06 02:19 | 18.82898 | -99.13471 | 16181 ft | 329 kts | 103° |
| 2026-05-06 02:19 | 18.82357 | -99.11131 | 15686 ft | 327 kts | 103° |
| 2026-05-06 02:19 | 18.81822 | -99.08813 | 15481 ft | 325 kts | 103° |
| 2026-05-06 02:20 | 18.80749 | -99.04161 | 15463 ft | 326 kts | 103° |
| 2026-05-06 02:20 | 18.80314 | -99.02272 | 15460 ft | 326 kts | 103° |
| 2026-05-06 02:20 | 18.79778 | -98.99944 | 15463 ft | 326 kts | 103° |
| 2026-05-06 02:21 | 18.79250 | -98.97648 | 15468 ft | 326 kts | 103° |
| 2026-05-06 02:21 | 18.78881 | -98.95294 | 15460 ft | 326 kts | 89° |
| 2026-05-06 02:21 | 18.79337 | -98.92964 | 15466 ft | 327 kts | 66° |
| 2026-05-06 02:21 | 18.80638 | -98.91001 | 15473 ft | 330 kts | 43° |
| 2026-05-06 02:22 | 18.82588 | -98.89717 | 15494 ft | 334 kts | 20° |
| 2026-05-06 02:22 | 18.84886 | -98.89326 | 15504 ft | 339 kts | 358° |
| 2026-05-06 02:22 | 18.87173 | -98.89895 | 15511 ft | 343 kts | 335° |
| 2026-05-06 02:22 | 18.89122 | -98.91361 | 15529 ft | 348 kts | 313° |
| 2026-05-06 02:23 | 18.90448 | -98.93490 | 15527 ft | 348 kts | 296° |
| 2026-05-06 02:23 | 18.91455 | -98.95814 | 15535 ft | 349 kts | 294° |
| 2026-05-06 02:23 | 18.92435 | -98.98159 | 15532 ft | 349 kts | 294° |
| 2026-05-06 02:23 | 18.93413 | -99.00509 | 15541 ft | 349 kts | 294° |
| 2026-05-06 02:24 | 18.94389 | -99.02858 | 15543 ft | 351 kts | 294° |
| 2026-05-06 02:24 | 18.95452 | -99.05187 | 15541 ft | 351 kts | 303° |
| 2026-05-06 02:24 | 18.97052 | -99.07113 | 15553 ft | 349 kts | 323° |
| 2026-05-06 02:24 | 18.99145 | -99.08367 | 15569 ft | 346 kts | 342° |
| 2026-05-06 02:25 | 19.01485 | -99.08825 | 15553 ft | 343 kts | 1° |
| 2026-05-06 02:25 | 19.03808 | -99.08486 | 15235 ft | 335 kts | 20° |
| 2026-05-06 02:25 | 19.05911 | -99.07477 | 14889 ft | 326 kts | 28° |
| 2026-05-06 02:25 | 19.07827 | -99.06454 | 14737 ft | 300 kts | 28° |
| 2026-05-06 02:26 | 19.09640 | -99.05492 | 14411 ft | 285 kts | 28° |
| 2026-05-06 02:26 | 19.11274 | -99.04628 | 14173 ft | 269 kts | 28° |
| 2026-05-06 02:26 | 19.12931 | -99.03753 | 13817 ft | 264 kts | 28° |
| 2026-05-06 02:26 | 19.14565 | -99.02892 | 13709 ft | 262 kts | 28° |
| 2026-05-06 02:27 | 19.16292 | -99.02264 | 13750 ft | 266 kts | 9° |
| 2026-05-06 02:27 | 19.18138 | -99.02366 | 13779 ft | 269 kts | 348° |
| 2026-05-06 02:27 | 19.19827 | -99.03209 | 13425 ft | 269 kts | 323° |
| 2026-05-06 02:27 | 19.21192 | -99.04551 | 13085 ft | 268 kts | 316° |
| 2026-05-06 02:28 | 19.22535 | -99.05905 | 12775 ft | 266 kts | 317° |
| 2026-05-06 02:28 | 19.23873 | -99.07242 | 12472 ft | 264 kts | 316° |
| 2026-05-06 02:28 | 19.25064 | -99.08733 | 12091 ft | 263 kts | 308° |
| 2026-05-06 02:28 | 19.26097 | -99.10164 | 11653 ft | 256 kts | 308° |
| 2026-05-06 02:29 | 19.27147 | -99.11622 | 11235 ft | 242 kts | 307° |
| 2026-05-06 02:29 | 19.28138 | -99.12998 | 10861 ft | 230 kts | 307° |
| 2026-05-06 02:29 | 19.29101 | -99.14332 | 10487 ft | 225 kts | 307° |
| 2026-05-06 02:29 | 19.30040 | -99.15633 | 10458 ft | 226 kts | 307° |
| 2026-05-06 02:30 | 19.31004 | -99.16943 | 10382 ft | 226 kts | 311° |
| 2026-05-06 02:30 | 19.32216 | -99.17980 | 10279 ft | 220 kts | 330° |
| 2026-05-06 02:30 | 19.33620 | -99.18542 | 9823 ft | 215 kts | 349° |
| 2026-05-06 02:30 | 19.35052 | -99.18582 | 9619 ft | 200 kts | 8° |
| 2026-05-06 02:31 | 19.36362 | -99.18185 | 9473 ft | 194 kts | 25° |
| 2026-05-06 02:31 | 19.37487 | -99.17418 | 9365 ft | 192 kts | 42° |
| 2026-05-06 02:31 | 19.38346 | -99.16343 | 9248 ft | 192 kts | 59° |
| 2026-05-06 02:31 | 19.39020 | -99.15145 | 9109 ft | 183 kts | 60° |
| 2026-05-06 02:32 | 19.39656 | -99.14014 | 8940 ft | 175 kts | 61° |
| 2026-05-06 02:32 | 19.40268 | -99.12922 | 8695 ft | 171 kts | 60° |
| 2026-05-06 02:32 | 19.40871 | -99.11849 | 8353 ft | 168 kts | 60° |
| 2026-05-06 02:32 | 19.41458 | -99.10802 | 8019 ft | 163 kts | 60° |
| 2026-05-06 02:33 | 19.42030 | -99.09778 | 7710 ft | 160 kts | 58° |
| 2026-05-06 02:33 | 19.42409 | -99.09098 | 7504 ft | 158 kts | 60° |
| 2026-05-06 02:33 | 19.43584 | -99.07007 | 7302 ft | 101 kts | 59° |
| 2026-05-06 02:34 | 19.43789 | -99.06644 | 7303 ft | 26 kts | 59° |
| 2026-05-06 02:34 | 19.43883 | -99.06481 | 7303 ft | 26 kts | 59° |
| 2026-05-06 02:34 | 19.43962 | -99.06325 | 7301 ft | 20 kts | 74° |
| 2026-05-06 02:34 | 19.43969 | -99.06181 | 7303 ft | 13 kts | 91° |
| 2026-05-06 02:35 | 19.43967 | -99.06100 | 7303 ft | 2 kts | 91° |
| 2026-05-06 02:35 | 19.43967 | -99.06098 | 7303 ft | 0 kts | 91° |
| 2026-05-06 02:37 | 19.43967 | -99.06097 | 7303 ft | 1 kts | 91° |
| 2026-05-06 02:37 | 19.43967 | -99.06074 | 7303 ft | 5 kts | 91° |
| 2026-05-06 02:38 | 19.43966 | -99.06055 | 7303 ft | 3 kts | 95° |
| 2026-05-06 02:38 | 19.43964 | -99.06044 | 7303 ft | 2 kts | 103° |
| 2026-05-06 02:38 | 19.43951 | -99.06041 | 7303 ft | 2 kts | 185° |
| 2026-05-06 02:38 | 19.43930 | -99.06060 | 7303 ft | 6 kts | 220° |
| 2026-05-06 02:39 | 19.43896 | -99.06112 | 7303 ft | 11 kts | 239° |
| 2026-05-06 02:39 | 19.43849 | -99.06196 | 7303 ft | 15 kts | 239° |
| 2026-05-06 02:39 | 19.43788 | -99.06308 | 7303 ft | 20 kts | 240° |
| 2026-05-06 02:39 | 19.43713 | -99.06445 | 7303 ft | 23 kts | 240° |
| 2026-05-06 02:40 | 19.43669 | -99.06524 | 7303 ft | 13 kts | 239° |
| 2026-05-06 02:40 | 19.43615 | -99.06616 | 7303 ft | 17 kts | 238° |
| 2026-05-06 02:40 | 19.43563 | -99.06693 | 7303 ft | 12 kts | 219° |
| 2026-05-06 02:40 | 19.43519 | -99.06720 | 7303 ft | 4 kts | 208° |
| 2026-05-06 02:41 | 19.43483 | -99.06741 | 7303 ft | 8 kts | 208° |
| 2026-05-06 02:41 | 19.43421 | -99.06775 | 7303 ft | 12 kts | 206° |
| 2026-05-06 02:41 | 19.43342 | -99.06822 | 7303 ft | 14 kts | 215° |
| 2026-05-06 02:41 | 19.43286 | -99.06903 | 7303 ft | 14 kts | 240° |
| 2026-05-06 02:42 | 19.43233 | -99.06997 | 7303 ft | 15 kts | 237° |
| 2026-05-06 02:42 | 19.43200 | -99.07079 | 7303 ft | 14 kts | 259° |
| 2026-05-06 02:42 | 19.43160 | -99.07185 | 7303 ft | 17 kts | 241° |
| 2026-05-06 02:42 | 19.43101 | -99.07292 | 7303 ft | 17 kts | 239° |
| 2026-05-06 02:43 | 19.43032 | -99.07412 | 7303 ft | 21 kts | 238° |
| 2026-05-06 02:43 | 19.42970 | -99.07522 | 7303 ft | 17 kts | 240° |
| 2026-05-06 02:43 | 19.42914 | -99.07627 | 7303 ft | 18 kts | 240° |
| 2026-05-06 02:43 | 19.42849 | -99.07751 | 7303 ft | 21 kts | 241° |
| 2026-05-06 02:44 | 19.42793 | -99.07853 | 7303 ft | 15 kts | 239° |
| 2026-05-06 02:44 | 19.42723 | -99.07861 | 7303 ft | 10 kts | 153° |
| 2026-05-06 02:44 | 19.42654 | -99.07820 | 7303 ft | 8 kts | 149° |
| 2026-05-06 02:44 | 19.42605 | -99.07843 | 7303 ft | 10 kts | 236° |
| 2026-05-06 02:45 | 19.42560 | -99.07919 | 7303 ft | 14 kts | 239° |
| 2026-05-06 02:45 | 19.42503 | -99.08021 | 7303 ft | 18 kts | 239° |
| 2026-05-06 02:45 | 19.42423 | -99.08038 | 7291 ft | 15 kts | 145° |
| 2026-05-06 02:45 | 19.42394 | -99.08017 | 7303 ft | 6 kts | 146° |
| 2026-05-06 02:46 | 19.42355 | -99.07981 | 7303 ft | 10 kts | 134° |
| 2026-05-06 02:46 | 19.42316 | -99.07943 | 7303 ft | 5 kts | 168° |
| 2026-05-06 02:46 | 19.42284 | -99.07951 | 7303 ft | 3 kts | 209° |
| 2026-05-06 02:46 | 19.42266 | -99.07962 | 7303 ft | 3 kts | 210° |
| 2026-05-06 02:47 | 19.42262 | -99.07965 | 7303 ft | 0 kts | 210° |